Terminal Aerodrome Forecast
Issued by NWS Topeka, KS

Home | Current Version | Previous Version | Text Only | Print | Product List | Glossary On
Versions: 1 2 3 4 5 6 7 8 9 10 11 12 13 14 15 16 17 18 19 20 21
189
FTUS43 KTOP 250907 AAA
TAFTOP
TAF AMD
KTOP 250907Z 2509/2606 34012G20KT 5SM BR VCSH OVC005
     FM251600 35012KT P6SM OVC015=

USA.gov is the U.S. government's official web portal to all federal, state and local government web resources and services.